sensor_id;sensor_type;location;lat;lon;timestamp;pressure;altitude;pressure_sealevel;temperature;humidity
53647;BME280;39550;52.230;5.194;2023-03-19T00:01:20;100920.75;;;10.74;83.56
53647;BME280;39550;52.230;5.194;2023-03-19T00:03:45;100916.47;;;10.73;83.75
53647;BME280;39550;52.230;5.194;2023-03-19T00:06:12;100919.03;;;10.73;83.33
53647;BME280;39550;52.230;5.194;2023-03-19T00:08:37;100912.16;;;10.70;83.15
53647;BME280;39550;52.230;5.194;2023-03-19T00:11:07;100918.16;;;10.71;83.95
53647;BME280;39550;52.230;5.194;2023-03-19T00:13:32;100916.41;;;10.70;83.59
53647;BME280;39550;52.230;5.194;2023-03-19T00:15:58;100913.84;;;10.70;83.55
53647;BME280;39550;52.230;5.194;2023-03-19T00:18:23;100924.16;;;10.70;83.56
53647;BME280;39550;52.230;5.194;2023-03-19T00:20:48;100912.13;;;10.69;83.41
53647;BME280;39550;52.230;5.194;2023-03-19T00:23:14;100926.72;;;10.68;83.83
53647;BME280;39550;52.230;5.194;2023-03-19T00:25:39;100927.59;;;10.69;83.85
53647;BME280;39550;52.230;5.194;2023-03-19T00:28:04;100931.00;;;10.68;83.62
53647;BME280;39550;52.230;5.194;2023-03-19T00:30:30;100924.13;;;10.67;83.66
53647;BME280;39550;52.230;5.194;2023-03-19T00:32:55;100932.69;;;10.66;83.74
53647;BME280;39550;52.230;5.194;2023-03-19T00:35:21;100930.13;;;10.66;83.76
53647;BME280;39550;52.230;5.194;2023-03-19T00:37:46;100932.69;;;10.66;83.93
53647;BME280;39550;52.230;5.194;2023-03-19T00:40:12;100931.00;;;10.65;83.33
53647;BME280;39550;52.230;5.194;2023-03-19T00:42:37;100935.28;;;10.64;83.69
53647;BME280;39550;52.230;5.194;2023-03-19T00:45:03;100931.84;;;10.64;83.83
53647;BME280;39550;52.230;5.194;2023-03-19T00:47:28;100937.84;;;10.63;83.48
53647;BME280;39550;52.230;5.194;2023-03-19T00:49:53;100935.25;;;10.63;83.62
53647;BME280;39550;52.230;5.194;2023-03-19T00:52:19;100933.53;;;10.62;83.80
53647;BME280;39550;52.230;5.194;2023-03-19T00:54:44;100941.25;;;10.62;83.91
53647;BME280;39550;52.230;5.194;2023-03-19T00:57:10;100934.41;;;10.61;83.45
53647;BME280;39550;52.230;5.194;2023-03-19T00:59:35;100945.53;;;10.60;83.42
53647;BME280;39550;52.230;5.194;2023-03-19T01:02:01;100942.97;;;10.60;83.73
53647;BME280;39550;52.230;5.194;2023-03-19T01:04:27;100946.38;;;10.59;83.74
53647;BME280;39550;52.230;5.194;2023-03-19T01:06:52;100948.13;;;10.60;83.86
53647;BME280;39550;52.230;5.194;2023-03-19T01:09:18;100950.69;;;10.58;83.68
53647;BME280;39550;52.230;5.194;2023-03-19T01:11:43;100948.97;;;10.59;83.78
53647;BME280;39550;52.230;5.194;2023-03-19T01:14:09;100945.53;;;10.56;83.62
53647;BME280;39550;52.230;5.194;2023-03-19T01:16:34;100950.69;;;10.56;83.76
53647;BME280;39550;52.230;5.194;2023-03-19T01:19:00;100945.53;;;10.56;83.77
53647;BME280;39550;52.230;5.194;2023-03-19T01:21:26;100948.94;;;10.55;83.41
53647;BME280;39550;52.230;5.194;2023-03-19T01:23:55;100949.78;;;10.54;84.13
53647;BME280;39550;52.230;5.194;2023-03-19T01:26:21;100940.31;;;10.52;83.97
53647;BME280;39550;52.230;5.194;2023-03-19T01:28:47;100948.03;;;10.53;83.42
53647;BME280;39550;52.230;5.194;2023-03-19T01:31:12;100941.19;;;10.52;83.73
53647;BME280;39550;52.230;5.194;2023-03-19T01:33:37;100946.34;;;10.52;83.68
53647;BME280;39550;52.230;5.194;2023-03-19T01:36:03;100947.19;;;10.51;83.68
53647;BME280;39550;52.230;5.194;2023-03-19T01:38:30;100945.44;;;10.50;83.91
53647;BME280;39550;52.230;5.194;2023-03-19T01:40:55;100946.28;;;10.49;83.66
53647;BME280;39550;52.230;5.194;2023-03-19T01:43:31;100942.84;;;10.47;83.75
53647;BME280;39550;52.230;5.194;2023-03-19T01:48:45;100941.09;;;10.46;83.76
53647;BME280;39550;52.230;5.194;2023-03-19T01:51:14;100945.41;;;10.46;83.77
53647;BME280;39550;52.230;5.194;2023-03-19T01:53:44;100946.25;;;10.45;84.08
53647;BME280;39550;52.230;5.194;2023-03-19T01:56:15;100942.81;;;10.44;83.93
53647;BME280;39550;52.230;5.194;2023-03-19T01:58:45;100947.09;;;10.44;83.66
53647;BME280;39550;52.230;5.194;2023-03-19T02:01:12;100947.97;;;10.43;83.81
53647;BME280;39550;52.230;5.194;2023-03-19T02:03:38;100943.66;;;10.43;84.10
53647;BME280;39550;52.230;5.194;2023-03-19T02:06:04;100943.66;;;10.42;84.34
53647;BME280;39550;52.230;5.194;2023-03-19T02:08:31;100943.63;;;10.38;84.05
53647;BME280;39550;52.230;5.194;2023-03-19T02:10:57;100955.63;;;10.39;84.21
53647;BME280;39550;52.230;5.194;2023-03-19T02:13:25;100953.94;;;10.38;84.00
53647;BME280;39550;52.230;5.194;2023-03-19T02:15:52;100954.75;;;10.36;84.02
53647;BME280;39550;52.230;5.194;2023-03-19T02:18:17;100941.78;;;10.31;84.10
53647;BME280;39550;52.230;5.194;2023-03-19T02:23:52;100953.03;;;10.36;84.18
53647;BME280;39550;52.230;5.194;2023-03-19T02:26:22;100957.34;;;10.36;84.19
53647;BME280;39550;52.230;5.194;2023-03-19T02:28:49;100959.91;;;10.34;84.14
53647;BME280;39550;52.230;5.194;2023-03-19T02:31:16;100961.56;;;10.34;84.14
53647;BME280;39550;52.230;5.194;2023-03-19T02:33:42;100966.72;;;10.34;84.32
53647;BME280;39550;52.230;5.194;2023-03-19T02:36:18;100960.69;;;10.32;84.25
53647;BME280;39550;52.230;5.194;2023-03-19T02:38:45;100962.38;;;10.31;84.12
53647;BME280;39550;52.230;5.194;2023-03-19T02:41:11;100954.66;;;10.30;84.16
53647;BME280;39550;52.230;5.194;2023-03-19T02:43:38;100958.09;;;10.29;84.16
53647;BME280;39550;52.230;5.194;2023-03-19T02:46:07;100968.41;;;10.29;84.21
53647;BME280;39550;52.230;5.194;2023-03-19T02:48:33;100968.41;;;10.29;84.12
53647;BME280;39550;52.230;5.194;2023-03-19T02:51:00;100966.66;;;10.28;83.89
53647;BME280;39550;52.230;5.194;2023-03-19T02:53:26;100971.81;;;10.28;84.36
53647;BME280;39550;52.230;5.194;2023-03-19T02:55:51;100965.78;;;10.27;84.35
53647;BME280;39550;52.230;5.194;2023-03-19T02:58:17;100968.34;;;10.26;84.30
53647;BME280;39550;52.230;5.194;2023-03-19T03:00:43;100975.22;;;10.27;84.53
53647;BME280;39550;52.230;5.194;2023-03-19T03:03:09;100973.50;;;10.26;84.06
53647;BME280;39550;52.230;5.194;2023-03-19T03:05:35;100973.50;;;10.26;84.25
53647;BME280;39550;52.230;5.194;2023-03-19T03:08:01;100976.03;;;10.24;83.87
53647;BME280;39550;52.230;5.194;2023-03-19T03:10:28;100982.09;;;10.25;84.24
53647;BME280;39550;52.230;5.194;2023-03-19T03:12:53;100976.88;;;10.23;84.13
53647;BME280;39550;52.230;5.194;2023-03-19T03:15:19;100975.19;;;10.23;83.94
53647;BME280;39550;52.230;5.194;2023-03-19T03:17:45;100971.72;;;10.21;84.13
53647;BME280;39550;52.230;5.194;2023-03-19T03:20:13;100977.75;;;10.20;84.08
53647;BME280;39550;52.230;5.194;2023-03-19T03:22:39;100977.69;;;10.19;84.18
53647;BME280;39550;52.230;5.194;2023-03-19T03:25:05;100980.31;;;10.20;84.24
53647;BME280;39550;52.230;5.194;2023-03-19T03:27:32;100975.09;;;10.17;84.54
53647;BME280;39550;52.230;5.194;2023-03-19T03:29:57;100975.94;;;10.15;84.00
53647;BME280;39550;52.230;5.194;2023-03-19T03:32:23;100975.97;;;10.16;84.06
53647;BME280;39550;52.230;5.194;2023-03-19T03:34:49;100966.50;;;10.15;84.27
53647;BME280;39550;52.230;5.194;2023-03-19T03:37:15;100968.22;;;10.15;84.31
53647;BME280;39550;52.230;5.194;2023-03-19T03:39:41;100969.06;;;10.14;84.12
53647;BME280;39550;52.230;5.194;2023-03-19T03:42:07;100969.06;;;10.12;84.53
53647;BME280;39550;52.230;5.194;2023-03-19T03:44:33;100979.38;;;10.12;84.37
53647;BME280;39550;52.230;5.194;2023-03-19T03:46:59;100982.78;;;10.11;84.41
53647;BME280;39550;52.230;5.194;2023-03-19T03:49:24;100975.88;;;10.10;84.31
53647;BME280;39550;52.230;5.194;2023-03-19T03:51:50;100981.88;;;10.09;84.06
53647;BME280;39550;52.230;5.194;2023-03-19T03:54:16;100981.88;;;10.09;84.33
53647;BME280;39550;52.230;5.194;2023-03-19T03:56:42;100975.03;;;10.08;84.53
53647;BME280;39550;52.230;5.194;2023-03-19T03:59:07;100979.28;;;10.08;84.46
53647;BME280;39550;52.230;5.194;2023-03-19T04:01:33;100973.28;;;10.07;84.55
53647;BME280;39550;52.230;5.194;2023-03-19T04:03:59;100979.28;;;10.06;84.30
53647;BME280;39550;52.230;5.194;2023-03-19T04:06:26;100981.00;;;10.05;84.23
53647;BME280;39550;52.230;5.194;2023-03-19T04:08:52;100984.41;;;10.04;84.35
53647;BME280;39550;52.230;5.194;2023-03-19T04:11:18;100966.28;;;9.97;84.34
53647;BME280;39550;52.230;5.194;2023-03-19T04:13:44;100976.66;;;10.01;84.44
53647;BME280;39550;52.230;5.194;2023-03-19T04:16:10;100980.06;;;10.02;84.60
53647;BME280;39550;52.230;5.194;2023-03-19T04:18:36;100979.22;;;10.00;85.01
53647;BME280;39550;52.230;5.194;2023-03-19T04:21:05;100983.50;;;10.01;84.42
53647;BME280;39550;52.230;5.194;2023-03-19T04:23:31;100981.78;;;10.00;84.54
53647;BME280;39550;52.230;5.194;2023-03-19T04:25:58;100980.06;;;9.99;84.46
53647;BME280;39550;52.230;5.194;2023-03-19T04:28:24;100985.19;;;9.99;84.26
53647;BME280;39550;52.230;5.194;2023-03-19T04:30:49;100981.72;;;9.97;84.74
53647;BME280;39550;52.230;5.194;2023-03-19T04:33:14;100971.44;;;9.97;84.40
53647;BME280;39550;52.230;5.194;2023-03-19T04:35:40;100980.03;;;9.96;84.46
53647;BME280;39550;52.230;5.194;2023-03-19T04:38:05;100985.16;;;9.96;84.65
53647;BME280;39550;52.230;5.194;2023-03-19T04:40:31;100989.44;;;9.95;84.40
53647;BME280;39550;52.230;5.194;2023-03-19T04:42:57;100996.31;;;9.95;84.52
53647;BME280;39550;52.230;5.194;2023-03-19T04:45:22;100992.88;;;9.94;84.37
53647;BME280;39550;52.230;5.194;2023-03-19T04:47:47;100990.25;;;9.93;84.70
53647;BME280;39550;52.230;5.194;2023-03-19T04:50:12;100992.00;;;9.94;84.18
53647;BME280;39550;52.230;5.194;2023-03-19T04:52:38;100993.69;;;9.92;84.51
53647;BME280;39550;52.230;5.194;2023-03-19T04:55:06;100992.00;;;9.94;84.36
53647;BME280;39550;52.230;5.194;2023-03-19T04:57:32;100991.97;;;9.92;84.69
53647;BME280;39550;52.230;5.194;2023-03-19T04:59:57;100994.53;;;9.92;84.16
53647;BME280;39550;52.230;5.194;2023-03-19T05:02:22;101004.00;;;9.92;84.30
53647;BME280;39550;52.230;5.194;2023-03-19T05:04:48;101017.69;;;9.91;84.72
53647;BME280;39550;52.230;5.194;2023-03-19T05:07:13;101015.09;;;9.89;84.59
53647;BME280;39550;52.230;5.194;2023-03-19T05:09:38;101017.66;;;9.87;84.41
53647;BME280;39550;52.230;5.194;2023-03-19T05:12:04;101023.66;;;9.88;84.48
53647;BME280;39550;52.230;5.194;2023-03-19T05:14:30;101021.06;;;9.86;84.32
53647;BME280;39550;52.230;5.194;2023-03-19T05:16:56;101015.06;;;9.86;84.41
53647;BME280;39550;52.230;5.194;2023-03-19T05:19:22;101028.78;;;9.85;84.40
53647;BME280;39550;52.230;5.194;2023-03-19T05:21:47;101023.59;;;9.83;84.35
53647;BME280;39550;52.230;5.194;2023-03-19T05:24:12;101031.34;;;9.85;84.08
53647;BME280;39550;52.230;5.194;2023-03-19T05:26:37;101029.59;;;9.82;84.63
53647;BME280;39550;52.230;5.194;2023-03-19T05:29:03;101035.66;;;9.84;84.42
53647;BME280;39550;52.230;5.194;2023-03-19T05:31:29;101033.91;;;9.83;84.50
53647;BME280;39550;52.230;5.194;2023-03-19T05:33:54;101033.00;;;9.81;84.61
53647;BME280;39550;52.230;5.194;2023-03-19T05:36:20;101031.28;;;9.80;84.49
53647;BME280;39550;52.230;5.194;2023-03-19T05:38:45;101043.31;;;9.81;84.56
53647;BME280;39550;52.230;5.194;2023-03-19T05:41:10;101040.72;;;9.81;84.33
53647;BME280;39550;52.230;5.194;2023-03-19T05:43:36;101046.75;;;9.80;84.29
53647;BME280;39550;52.230;5.194;2023-03-19T05:46:01;101042.44;;;9.81;83.93
53647;BME280;39550;52.230;5.194;2023-03-19T05:48:27;101043.25;;;9.78;84.31
53647;BME280;39550;52.230;5.194;2023-03-19T05:50:52;101058.69;;;9.78;83.84
53647;BME280;39550;52.230;5.194;2023-03-19T05:53:19;101061.28;;;9.78;83.96
53647;BME280;39550;52.230;5.194;2023-03-19T05:55:44;101062.13;;;9.77;84.22
53647;BME280;39550;52.230;5.194;2023-03-19T05:58:10;101062.97;;;9.76;84.33
53647;BME280;39550;52.230;5.194;2023-03-19T06:00:35;101066.44;;;9.78;84.26
53647;BME280;39550;52.230;5.194;2023-03-19T06:03:01;101061.25;;;9.77;84.34
53647;BME280;39550;52.230;5.194;2023-03-19T06:05:26;101066.41;;;9.77;84.32
53647;BME280;39550;52.230;5.194;2023-03-19T06:07:52;101068.97;;;9.75;83.81
53647;BME280;39550;52.230;5.194;2023-03-19T06:10:17;101061.22;;;9.74;84.43
53647;BME280;39550;52.230;5.194;2023-03-19T06:12:43;101068.97;;;9.75;84.33
53647;BME280;39550;52.230;5.194;2023-03-19T06:15:08;101074.94;;;9.74;84.17
53647;BME280;39550;52.230;5.194;2023-03-19T06:17:34;101074.09;;;9.74;84.19
53647;BME280;39550;52.230;5.194;2023-03-19T06:20:00;101080.91;;;9.73;84.04
53647;BME280;39550;52.230;5.194;2023-03-19T06:22:25;101071.50;;;9.72;84.17
53647;BME280;39550;52.230;5.194;2023-03-19T06:24:51;101077.50;;;9.74;84.07
53647;BME280;39550;52.230;5.194;2023-03-19T06:27:17;101084.38;;;9.72;84.07
53647;BME280;39550;52.230;5.194;2023-03-19T06:29:42;101091.19;;;9.70;84.07
53647;BME280;39550;52.230;5.194;2023-03-19T06:32:08;101086.88;;;9.70;84.32
53647;BME280;39550;52.230;5.194;2023-03-19T06:34:34;101087.78;;;9.73;84.05
53647;BME280;39550;52.230;5.194;2023-03-19T06:36:59;101094.69;;;9.75;83.95
53647;BME280;39550;52.230;5.194;2023-03-19T06:42:00;101105.78;;;9.71;83.67
53647;BME280;39550;52.230;5.194;2023-03-19T06:44:25;101103.09;;;9.65;83.59
53647;BME280;39550;52.230;5.194;2023-03-19T06:46:51;101122.03;;;9.68;83.57
53647;BME280;39550;52.230;5.194;2023-03-19T06:49:17;101128.94;;;9.71;83.67
53647;BME280;39550;52.230;5.194;2023-03-19T06:51:42;101127.19;;;9.70;84.02
53647;BME280;39550;52.230;5.194;2023-03-19T06:54:07;101122.88;;;9.69;83.82
53647;BME280;39550;52.230;5.194;2023-03-19T06:56:33;101124.63;;;9.68;84.09
53647;BME280;39550;52.230;5.194;2023-03-19T06:58:58;101124.44;;;9.59;83.41
53647;BME280;39550;52.230;5.194;2023-03-19T07:01:23;101132.28;;;9.64;83.77
53647;BME280;39550;52.230;5.194;2023-03-19T07:03:49;101134.84;;;9.64;83.98
53647;BME280;39550;52.230;5.194;2023-03-19T07:06:14;101137.41;;;9.64;83.89
53647;BME280;39550;52.230;5.194;2023-03-19T07:08:39;101144.25;;;9.65;84.06
53647;BME280;39550;52.230;5.194;2023-03-19T07:11:10;101151.13;;;9.63;83.59
53647;BME280;39550;52.230;5.194;2023-03-19T07:13:36;101152.84;;;9.64;84.02
53647;BME280;39550;52.230;5.194;2023-03-19T07:16:02;101151.13;;;9.63;83.81
53647;BME280;39550;52.230;5.194;2023-03-19T07:18:27;101155.44;;;9.64;83.77
53647;BME280;39550;52.230;5.194;2023-03-19T07:20:53;101163.16;;;9.64;83.62
53647;BME280;39550;52.230;5.194;2023-03-19T07:23:18;101164.81;;;9.62;83.99
53647;BME280;39550;52.230;5.194;2023-03-19T07:25:44;101169.94;;;9.62;84.17
53647;BME280;39550;52.230;5.194;2023-03-19T07:28:11;101168.22;;;9.61;83.52
53647;BME280;39550;52.230;5.194;2023-03-19T07:30:36;101175.09;;;9.62;83.84
53647;BME280;39550;52.230;5.194;2023-03-19T07:33:03;101175.94;;;9.61;84.04
53647;BME280;39550;52.230;5.194;2023-03-19T07:35:28;101177.66;;;9.60;83.93
53647;BME280;39550;52.230;5.194;2023-03-19T07:37:53;101179.38;;;9.60;83.98
53647;BME280;39550;52.230;5.194;2023-03-19T07:40:19;101177.69;;;9.62;84.17
53647;BME280;39550;52.230;5.194;2023-03-19T07:42:45;101181.94;;;9.60;84.09
53647;BME280;39550;52.230;5.194;2023-03-19T07:45:11;101180.06;;;9.52;83.42
53647;BME280;39550;52.230;5.194;2023-03-19T07:47:36;101181.06;;;9.59;83.83
53647;BME280;39550;52.230;5.194;2023-03-19T07:50:01;101182.78;;;9.60;84.02
53647;BME280;39550;52.230;5.194;2023-03-19T07:52:28;101184.50;;;9.60;83.81
53647;BME280;39550;52.230;5.194;2023-03-19T07:54:53;101185.34;;;9.59;83.99
53647;BME280;39550;52.230;5.194;2023-03-19T07:57:19;101190.50;;;9.59;83.65
53647;BME280;39550;52.230;5.194;2023-03-19T07:59:45;101197.38;;;9.60;83.70
53647;BME280;39550;52.230;5.194;2023-03-19T08:02:11;101199.94;;;9.60;83.87
53647;BME280;39550;52.230;5.194;2023-03-19T08:04:36;101209.34;;;9.59;83.76
53647;BME280;39550;52.230;5.194;2023-03-19T08:07:02;101199.94;;;9.58;83.72
53647;BME280;39550;52.230;5.194;2023-03-19T08:09:27;101200.78;;;9.59;83.73
53647;BME280;39550;52.230;5.194;2023-03-19T08:11:52;101197.38;;;9.60;83.34
53647;BME280;39550;52.230;5.194;2023-03-19T08:14:18;101211.13;;;9.62;83.73
53647;BME280;39550;52.230;5.194;2023-03-19T08:16:47;101204.22;;;9.61;83.41
53647;BME280;39550;52.230;5.194;2023-03-19T08:19:12;101213.69;;;9.62;83.28
53647;BME280;39550;52.230;5.194;2023-03-19T08:21:38;101211.97;;;9.61;83.41
53647;BME280;39550;52.230;5.194;2023-03-19T08:24:03;101214.53;;;9.61;83.07
53647;BME280;39550;52.230;5.194;2023-03-19T08:26:29;101212.81;;;9.60;83.69
53647;BME280;39550;52.230;5.194;2023-03-19T08:28:57;101222.22;;;9.59;83.63
53647;BME280;39550;52.230;5.194;2023-03-19T08:31:22;101221.38;;;9.59;83.32
53647;BME280;39550;52.230;5.194;2023-03-19T08:33:47;101216.22;;;9.59;83.07
53647;BME280;39550;52.230;5.194;2023-03-19T08:36:13;101222.22;;;9.59;83.34
53647;BME280;39550;52.230;5.194;2023-03-19T08:38:38;101224.72;;;9.54;83.34
53647;BME280;39550;52.230;5.194;2023-03-19T08:41:05;101226.50;;;9.59;83.56
53647;BME280;39550;52.230;5.194;2023-03-19T08:43:31;101233.41;;;9.60;83.39
53647;BME280;39550;52.230;5.194;2023-03-19T08:45:57;101235.94;;;9.58;83.18
53647;BME280;39550;52.230;5.194;2023-03-19T08:48:23;101239.38;;;9.59;83.20
53647;BME280;39550;52.230;5.194;2023-03-19T08:50:56;101245.34;;;9.58;83.27
53647;BME280;39550;52.230;5.194;2023-03-19T08:53:22;101254.00;;;9.60;83.21
53647;BME280;39550;52.230;5.194;2023-03-19T08:55:58;101256.47;;;9.57;83.44
53647;BME280;39550;52.230;5.194;2023-03-19T08:58:24;101250.44;;;9.54;83.39
53647;BME280;39550;52.230;5.194;2023-03-19T09:00:50;101257.38;;;9.59;83.24
53647;BME280;39550;52.230;5.194;2023-03-19T09:03:18;101259.97;;;9.59;83.18
53647;BME280;39550;52.230;5.194;2023-03-19T09:05:44;101261.63;;;9.57;82.92
53647;BME280;39550;52.230;5.194;2023-03-19T09:08:09;101264.28;;;9.60;83.05
53647;BME280;39550;52.230;5.194;2023-03-19T09:10:35;101259.09;;;9.58;83.25
53647;BME280;39550;52.230;5.194;2023-03-19T09:13:01;101269.44;;;9.60;83.41
53647;BME280;39550;52.230;5.194;2023-03-19T09:15:26;101260.84;;;9.61;82.95
53647;BME280;39550;52.230;5.194;2023-03-19T09:17:52;101263.41;;;9.61;83.15
53647;BME280;39550;52.230;5.194;2023-03-19T09:20:17;101266.00;;;9.61;83.32
53647;BME280;39550;52.230;5.194;2023-03-19T09:22:43;101264.25;;;9.58;83.08
53647;BME280;39550;52.230;5.194;2023-03-19T09:25:08;101274.63;;;9.63;82.87
53647;BME280;39550;52.230;5.194;2023-03-19T09:27:34;101274.63;;;9.63;83.27
53647;BME280;39550;52.230;5.194;2023-03-19T09:29:59;101280.59;;;9.62;82.99
53647;BME280;39550;52.230;5.194;2023-03-19T09:32:24;101278.03;;;9.62;82.98
53647;BME280;39550;52.230;5.194;2023-03-19T09:34:50;101281.44;;;9.61;83.21
53647;BME280;39550;52.230;5.194;2023-03-19T09:37:15;101284.84;;;9.60;83.59
53647;BME280;39550;52.230;5.194;2023-03-19T09:39:40;101297.75;;;9.61;82.92
53647;BME280;39550;52.230;5.194;2023-03-19T09:42:23;101301.09;;;9.57;83.05
53647;BME280;39550;52.230;5.194;2023-03-19T09:44:52;101289.81;;;9.50;83.42
53647;BME280;39550;52.230;5.194;2023-03-19T09:47:33;101303.69;;;9.59;83.66
53647;BME280;39550;52.230;5.194;2023-03-19T09:50:22;101307.09;;;9.58;83.45
53647;BME280;39550;52.230;5.194;2023-03-19T09:52:55;101314.81;;;9.56;83.13
53647;BME280;39550;52.230;5.194;2023-03-19T09:57:48;101318.28;;;9.58;83.95
53647;BME280;39550;52.230;5.194;2023-03-19T10:00:35;101325.94;;;9.57;83.58
53647;BME280;39550;52.230;5.194;2023-03-19T10:06:27;101319.13;;;9.59;83.21
53647;BME280;39550;52.230;5.194;2023-03-19T10:14:54;101327.75;;;9.61;83.15
53647;BME280;39550;52.230;5.194;2023-03-19T10:17:39;101328.66;;;9.63;83.56
53647;BME280;39550;52.230;5.194;2023-03-19T10:20:35;101325.28;;;9.65;82.69
53647;BME280;39550;52.230;5.194;2023-03-19T10:23:36;101328.69;;;9.64;82.80
53647;BME280;39550;52.230;5.194;2023-03-19T10:26:07;101332.97;;;9.64;83.18
53647;BME280;39550;52.230;5.194;2023-03-19T10:28:35;101332.97;;;9.64;83.12
53647;BME280;39550;52.230;5.194;2023-03-19T10:36:09;101333.03;;;9.67;82.91
53647;BME280;39550;52.230;5.194;2023-03-19T10:38:39;101325.13;;;9.58;83.18
53647;BME280;39550;52.230;5.194;2023-03-19T10:41:26;101335.56;;;9.65;83.25
53647;BME280;39550;52.230;5.194;2023-03-19T10:43:59;101344.97;;;9.65;83.08
53647;BME280;39550;52.230;5.194;2023-03-19T10:46:25;101340.78;;;9.68;83.13
53647;BME280;39550;52.230;5.194;2023-03-19T10:48:50;101345.06;;;9.68;83.16
53647;BME280;39550;52.230;5.194;2023-03-19T10:51:20;101352.75;;;9.66;82.94
53647;BME280;39550;52.230;5.194;2023-03-19T10:53:47;101348.41;;;9.64;83.23
53647;BME280;39550;52.230;5.194;2023-03-19T10:56:22;101348.41;;;9.64;83.22
53647;BME280;39550;52.230;5.194;2023-03-19T11:01:34;101359.53;;;9.63;83.04
53647;BME280;39550;52.230;5.194;2023-03-19T11:04:02;101365.50;;;9.62;83.18
53647;BME280;39550;52.230;5.194;2023-03-19T11:06:36;101357.78;;;9.62;83.06
53647;BME280;39550;52.230;5.194;2023-03-19T11:09:25;101358.63;;;9.61;83.12
53647;BME280;39550;52.230;5.194;2023-03-19T11:11:56;101362.06;;;9.60;82.98
53647;BME280;39550;52.230;5.194;2023-03-19T11:14:39;101362.94;;;9.62;82.91
53647;BME280;39550;52.230;5.194;2023-03-19T11:19:48;101360.34;;;9.60;83.27
53647;BME280;39550;52.230;5.194;2023-03-19T11:22:37;101359.56;;;9.64;83.15
53647;BME280;39550;52.230;5.194;2023-03-19T11:25:15;101357.78;;;9.62;82.91
53647;BME280;39550;52.230;5.194;2023-03-19T11:27:44;101362.97;;;9.63;83.02
53647;BME280;39550;52.230;5.194;2023-03-19T11:30:21;101368.13;;;9.65;83.03
53647;BME280;39550;52.230;5.194;2023-03-19T11:35:33;101360.38;;;9.62;82.83
53647;BME280;39550;52.230;5.194;2023-03-19T11:38:01;101364.69;;;9.63;83.14
53647;BME280;39550;52.230;5.194;2023-03-19T11:40:33;101360.41;;;9.65;83.32
53647;BME280;39550;52.230;5.194;2023-03-19T11:51:38;101369.97;;;9.70;82.88
53647;BME280;39550;52.230;5.194;2023-03-19T11:59:31;101357.06;;;9.69;82.43
53647;BME280;39550;52.230;5.194;2023-03-19T12:04:59;101378.34;;;9.60;82.72
53647;BME280;39550;52.230;5.194;2023-03-19T12:32:44;101386.13;;;9.63;82.92
53647;BME280;39550;52.230;5.194;2023-03-19T12:35:16;101398.13;;;9.63;83.05
53647;BME280;39550;52.230;5.194;2023-03-19T12:38:01;101399.88;;;9.64;82.92
53647;BME280;39550;52.230;5.194;2023-03-19T12:40:51;101402.44;;;9.62;83.12
53647;BME280;39550;52.230;5.194;2023-03-19T12:43:23;101409.25;;;9.62;82.99
53647;BME280;39550;52.230;5.194;2023-03-19T12:46:15;101399.78;;;9.61;83.19
53647;BME280;39550;52.230;5.194;2023-03-19T12:51:11;101410.09;;;9.61;83.34
53647;BME280;39550;52.230;5.194;2023-03-19T12:53:54;101403.22;;;9.60;83.18
53647;BME280;39550;52.230;5.194;2023-03-19T12:56:38;101409.22;;;9.60;83.11
53647;BME280;39550;52.230;5.194;2023-03-19T12:59:16;101416.13;;;9.61;83.04
53647;BME280;39550;52.230;5.194;2023-03-19T13:01:48;101411.81;;;9.62;83.28
53647;BME280;39550;52.230;5.194;2023-03-19T13:09:26;101416.19;;;9.64;82.99
53647;BME280;39550;52.230;5.194;2023-03-19T13:14:29;101408.47;;;9.66;82.75
53647;BME280;39550;52.230;5.194;2023-03-19T13:17:41;101406.81;;;9.68;82.56
53647;BME280;39550;52.230;5.194;2023-03-19T13:19:48;101412.84;;;9.70;82.92
53647;BME280;39550;52.230;5.194;2023-03-19T13:22:20;101405.13;;;9.70;82.45
53647;BME280;39550;52.230;5.194;2023-03-19T13:24:47;101406.31;;;9.84;82.20
53647;BME280;39550;52.230;5.194;2023-03-19T13:27:34;101402.88;;;9.85;82.09
53647;BME280;39550;52.230;5.194;2023-03-19T13:32:45;101405.53;;;9.88;82.03
53647;BME280;39550;52.230;5.194;2023-03-19T13:35:26;101400.66;;;10.04;81.54
53647;BME280;39550;52.230;5.194;2023-03-19T13:37:59;101399.88;;;10.08;80.70
53647;BME280;39550;52.230;5.194;2023-03-19T13:43:02;101408.22;;;9.96;80.02
53647;BME280;39550;52.230;5.194;2023-03-19T13:45:29;101414.19;;;9.94;80.71
53647;BME280;39550;52.230;5.194;2023-03-19T13:55:56;101409.72;;;9.85;81.59
53647;BME280;39550;52.230;5.194;2023-03-19T13:58:25;101404.59;;;9.85;81.55
53647;BME280;39550;52.230;5.194;2023-03-19T14:03:56;101396.22;;;9.97;81.50
53647;BME280;39550;52.230;5.194;2023-03-19T14:06:37;101399.75;;;10.02;81.12
53647;BME280;39550;52.230;5.194;2023-03-19T14:09:05;101400.66;;;10.04;81.20
53647;BME280;39550;52.230;5.194;2023-03-19T14:11:34;101402.28;;;9.99;81.02
53647;BME280;39550;52.230;5.194;2023-03-19T14:14:03;101409.06;;;9.95;81.28
53647;BME280;39550;52.230;5.194;2023-03-19T14:16:40;101415.88;;;9.92;81.31
53647;BME280;39550;52.230;5.194;2023-03-19T14:19:11;101413.34;;;9.95;81.42
53647;BME280;39550;52.230;5.194;2023-03-19T14:21:45;101427.88;;;9.93;81.89
53647;BME280;39550;52.230;5.194;2023-03-19T14:24:33;101435.50;;;9.86;82.34
53647;BME280;39550;52.230;5.194;2023-03-19T14:27:25;101434.53;;;9.81;82.26
53647;BME280;39550;52.230;5.194;2023-03-19T14:29:52;101439.69;;;9.81;82.25
53647;BME280;39550;52.230;5.194;2023-03-19T14:32:24;101439.66;;;9.80;82.20
53647;BME280;39550;52.230;5.194;2023-03-19T14:34:53;101437.88;;;9.77;82.36
53647;BME280;39550;52.230;5.194;2023-03-19T14:37:24;101427.53;;;9.74;82.92
53647;BME280;39550;52.230;5.194;2023-03-19T14:40:23;101435.25;;;9.74;82.47
53647;BME280;39550;52.230;5.194;2023-03-19T14:45:37;101436.97;;;9.74;82.49
53647;BME280;39550;52.230;5.194;2023-03-19T14:48:30;101437.81;;;9.74;82.88